createdAt,value
2023-01-28T05:38:04.621Z,82.19
2023-01-28T05:40:32.109Z,82.07
2023-01-28T05:42:59.561Z,82.15
2023-01-28T05:45:40.712Z,82.11
2023-01-28T05:48:28.847Z,82.14
2023-01-28T05:51:27.976Z,82.08
2023-01-28T05:54:00.146Z,81.95
2023-01-28T05:56:26.815Z,81.98
2023-01-28T05:58:53.320Z,82.23
2023-01-28T06:01:21.016Z,82.21
2023-01-28T06:03:53.218Z,82.18
2023-01-28T06:06:20.072Z,82.17
2023-01-28T06:14:45.120Z,82.01
2023-01-28T06:17:32.856Z,82.11
2023-01-28T06:20:08.473Z,81.97
2023-01-28T06:22:38.519Z,81.90
2023-01-28T06:25:07.083Z,81.75
2023-01-28T06:27:35.716Z,81.63
2023-01-28T06:30:04.336Z,81.68
2023-01-28T06:32:33.904Z,81.41
2023-01-28T06:35:01.873Z,81.45
2023-01-28T06:37:30.735Z,81.52
2023-01-28T06:39:58.948Z,81.29
2023-01-28T06:42:26.998Z,81.40
2023-01-28T06:44:55.135Z,81.55
2023-01-28T06:47:23.144Z,81.57
2023-01-28T06:49:51.066Z,81.46
2023-01-28T06:52:19.027Z,81.41
2023-01-28T06:54:47.304Z,81.40
2023-01-28T06:57:15.162Z,81.17
2023-01-28T06:59:43.203Z,81.00
2023-01-28T07:02:11.648Z,81.28
2023-01-28T07:04:39.601Z,81.37
2023-01-28T07:07:07.926Z,81.35
2023-01-28T07:09:36.646Z,81.27
2023-01-28T07:12:05.416Z,80.96
2023-01-28T07:14:33.720Z,81.13
2023-01-28T07:17:02.061Z,81.14
2023-01-28T07:19:30.361Z,81.01
2023-01-28T07:22:00.914Z,80.93
2023-01-28T07:24:29.855Z,80.69
2023-01-28T07:26:57.800Z,80.84
2023-01-28T07:29:26.782Z,80.72
2023-01-28T07:31:54.751Z,80.77
2023-01-28T07:34:22.645Z,81.00
2023-01-28T07:36:50.551Z,80.83
2023-01-28T07:39:18.862Z,80.92
2023-01-28T07:41:47.457Z,80.94
2023-01-28T07:44:33.794Z,80.60
2023-01-28T07:47:02.505Z,80.89
2023-01-28T07:49:30.541Z,81.48
2023-01-28T07:52:01.708Z,81.44
2023-01-28T07:54:29.941Z,81.56
2023-01-28T07:56:57.811Z,81.47
2023-01-28T07:59:26.306Z,81.72
2023-01-28T08:01:55.180Z,82.22
2023-01-28T08:04:23.504Z,81.94
2023-01-28T08:06:52.347Z,82.14
2023-01-28T08:09:20.368Z,81.98
2023-01-28T08:11:49.331Z,81.36
2023-01-28T08:14:17.382Z,80.98
2023-01-28T08:16:45.324Z,81.37
2023-01-28T08:19:13.229Z,81.78
2023-01-28T10:13:28.221Z,82.12
2023-01-28T10:16:10.646Z,81.73
2023-01-28T10:19:00.538Z,81.60
2023-01-28T10:21:40.928Z,81.74
2023-01-28T10:24:18.333Z,81.80
2023-01-28T10:26:45.217Z,81.35
2023-01-28T10:29:32.767Z,80.97
2023-01-28T10:32:20.795Z,80.42
2023-01-28T10:34:47.784Z,79.89
2023-01-28T10:37:14.633Z,79.84
2023-01-28T10:39:41.477Z,79.58
2023-01-28T10:42:35.457Z,79.23
2023-01-28T10:45:14.976Z,79.01
2023-01-28T10:47:45.322Z,78.58
2023-01-28T10:50:22.792Z,78.33
2023-01-28T10:53:00.742Z,78.08
2023-01-28T10:55:34.215Z,77.85
2023-01-28T10:58:04.874Z,77.37
2023-01-28T11:00:35.531Z,76.90
2023-01-28T11:03:04.301Z,76.83
2023-01-28T11:05:32.553Z,76.67
2023-01-28T11:08:12.859Z,76.42
2023-01-28T11:10:40.222Z,75.79
2023-01-28T11:13:22.397Z,75.20
2023-01-28T11:15:53.838Z,74.79
2023-01-28T11:18:25.057Z,74.52
